createdAt,value
2022-12-09T00:02:12.323Z,3.33
2022-12-09T00:04:45.751Z,5.30
2022-12-09T00:07:18.981Z,4.60
2022-12-09T00:09:52.020Z,4.33
2022-12-09T00:12:24.928Z,4.80
2022-12-09T00:14:57.867Z,4.60
2022-12-09T00:17:31.447Z,4.20
2022-12-09T00:20:05.368Z,3.83
2022-12-09T00:22:38.885Z,4.13
2022-12-09T00:25:11.957Z,3.63
2022-12-09T00:27:44.871Z,4.07
2022-12-09T00:30:18.035Z,3.60
2022-12-09T00:32:51.246Z,3.77
2022-12-09T00:35:24.383Z,4.33
2022-12-09T00:37:57.614Z,3.73
2022-12-09T00:40:30.611Z,4.80
2022-12-09T00:43:04.071Z,4.50
2022-12-09T00:45:37.249Z,4.40
2022-12-09T00:48:10.191Z,4.03
2022-12-09T00:50:43.273Z,5.27
2022-12-09T00:53:16.617Z,5.17
2022-12-09T00:55:49.771Z,5.47
2022-12-09T00:58:22.976Z,4.53
2022-12-09T01:00:56.276Z,3.83
2022-12-09T01:03:30.324Z,4.80
2022-12-09T01:06:08.286Z,4.40
2022-12-09T01:08:43.019Z,4.23
2022-12-09T01:11:17.391Z,4.60
2022-12-09T01:13:52.397Z,4.27
2022-12-09T01:16:26.949Z,4.33
2022-12-09T01:19:00.543Z,5.10
2022-12-09T01:21:34.343Z,5.07
2022-12-09T01:24:09.282Z,5.13
2022-12-09T01:26:42.253Z,5.03
2022-12-09T01:29:15.521Z,4.57
2022-12-09T01:31:48.596Z,4.57
2022-12-09T01:34:21.542Z,4.70
2022-12-09T01:36:54.477Z,4.53
2022-12-09T01:39:29.052Z,4.73
2022-12-09T01:42:03.280Z,4.80
2022-12-09T01:44:36.343Z,6.38
2022-12-09T01:47:21.367Z,4.77
2022-12-09T01:49:54.375Z,4.57
2022-12-09T01:52:27.449Z,4.53
2022-12-09T01:55:00.424Z,4.50
2022-12-09T01:57:33.400Z,4.60
2022-12-09T02:03:08.917Z,6.50
2022-12-09T02:05:42.697Z,5.60
2022-12-09T02:08:17.195Z,5.13
2022-12-09T02:10:57.486Z,5.20
2022-12-09T02:13:41.965Z,5.70
2022-12-09T02:16:20.792Z,4.37
2022-12-09T02:18:57.251Z,4.67
2022-12-09T02:21:34.556Z,4.77
2022-12-09T02:24:24.087Z,4.47
2022-12-09T02:27:17.070Z,4.50
2022-12-09T02:30:09.724Z,4.60
2022-12-09T02:32:49.861Z,4.77
2022-12-09T02:35:46.395Z,4.97
2022-12-09T02:38:24.605Z,5.07
2022-12-09T02:41:07.027Z,4.53
2022-12-09T02:43:49.728Z,4.53
2022-12-09T02:46:26.705Z,4.30
2022-12-09T02:49:01.200Z,4.47
2022-12-09T02:51:36.624Z,4.83
2022-12-09T02:54:11.954Z,4.60
2022-12-09T02:56:57.339Z,4.70
2022-12-09T02:59:33.286Z,4.17
2022-12-09T03:02:26.314Z,4.40
2022-12-09T03:05:10.459Z,4.37
2022-12-09T03:07:43.412Z,4.17
2022-12-09T03:10:33.784Z,4.77
2022-12-09T03:13:11.241Z,3.57
2022-12-09T03:15:46.605Z,4.00
2022-12-09T03:18:20.860Z,4.77
2022-12-09T03:20:55.005Z,4.83
2022-12-09T03:23:28.404Z,4.60
2022-12-09T03:26:02.911Z,4.43
2022-12-09T03:28:39.525Z,4.93
2022-12-09T03:31:15.102Z,4.87
2022-12-09T03:33:49.890Z,4.23
2022-12-09T03:36:23.237Z,4.73
2022-12-09T03:38:56.408Z,4.17
2022-12-09T03:41:31.787Z,5.13
2022-12-09T03:44:04.751Z,4.47
2022-12-09T03:46:37.887Z,4.10
2022-12-09T03:49:11.743Z,3.63
2022-12-09T03:51:52.108Z,4.17
2022-12-09T03:54:34.743Z,5.07
2022-12-09T03:57:14.087Z,4.87
2022-12-09T03:59:53.568Z,4.17
2022-12-09T04:02:27.425Z,4.03
2022-12-09T04:05:00.834Z,4.10
2022-12-09T04:07:36.097Z,6.10
2022-12-09T04:10:09.767Z,4.63
2022-12-09T04:12:42.957Z,4.80
2022-12-09T04:15:15.983Z,4.40
2022-12-09T04:17:49.304Z,4.57
2022-12-09T04:20:22.590Z,4.10
2022-12-09T04:22:56.405Z,4.23
2022-12-09T04:25:29.729Z,4.10
2022-12-09T04:28:02.914Z,4.57
2022-12-09T04:30:36.085Z,3.83
2022-12-09T04:33:09.349Z,3.83
2022-12-09T04:35:42.430Z,3.47
2022-12-09T04:38:15.554Z,3.83
2022-12-09T04:40:48.873Z,4.40
2022-12-09T04:43:21.778Z,3.37
2022-12-09T04:45:55.109Z,3.47
2022-12-09T04:48:28.557Z,4.53
2022-12-09T04:51:02.189Z,4.43
2022-12-09T04:53:35.133Z,5.27
2022-12-09T04:56:09.435Z,4.23
2022-12-09T04:58:44.253Z,5.00
2022-12-09T05:01:19.227Z,4.83
2022-12-09T05:03:54.356Z,4.33
2022-12-09T05:06:28.311Z,4.33
2022-12-09T05:09:01.906Z,5.07
2022-12-09T05:11:35.272Z,4.73
2022-12-09T05:14:08.486Z,4.53
2022-12-09T05:16:41.939Z,5.37
2022-12-09T05:19:15.165Z,4.93
2022-12-09T05:21:48.646Z,7.72
2022-12-09T05:24:21.805Z,5.53
2022-12-09T05:26:54.852Z,5.70
2022-12-09T05:29:28.232Z,4.33
2022-12-09T05:32:01.502Z,5.23
2022-12-09T05:34:34.607Z,5.67
2022-12-09T05:37:08.252Z,4.80
2022-12-09T05:39:41.399Z,4.90
2022-12-09T05:42:14.915Z,4.90
2022-12-09T05:44:48.266Z,4.50
2022-12-09T05:47:21.348Z,4.83
2022-12-09T05:49:54.851Z,4.60
2022-12-09T05:52:27.967Z,5.10
2022-12-09T05:55:01.139Z,4.50
2022-12-09T05:57:35.001Z,6.13
2022-12-09T06:00:09.259Z,5.23
2022-12-09T06:02:45.552Z,5.33
2022-12-09T06:05:19.178Z,4.97
2022-12-09T06:07:52.509Z,5.57
2022-12-09T06:10:25.769Z,4.67
2022-12-09T06:12:58.937Z,4.50
2022-12-09T06:15:33.668Z,4.77
2022-12-09T06:18:07.232Z,6.22
2022-12-09T06:20:41.252Z,4.93
2022-12-09T06:23:14.887Z,5.47
2022-12-09T06:25:48.401Z,4.10
2022-12-09T06:28:21.584Z,4.60
2022-12-09T06:30:54.617Z,4.87
2022-12-09T06:33:53.668Z,4.93
2022-12-09T06:36:20.796Z,4.23
2022-12-09T06:38:54.078Z,4.50
2022-12-09T06:41:27.561Z,4.67
2022-12-09T06:44:00.843Z,4.43
2022-12-09T06:46:34.029Z,4.67
2022-12-09T06:49:07.511Z,4.40
2022-12-09T06:51:41.073Z,4.50
2022-12-09T06:54:14.227Z,4.43
2022-12-09T06:56:47.299Z,4.43
2022-12-09T06:59:20.597Z,4.67
2022-12-09T07:01:53.873Z,4.27
2022-12-09T07:04:27.928Z,4.63
2022-12-09T07:07:01.494Z,4.50
2022-12-09T07:09:34.799Z,4.50
2022-12-09T07:12:07.987Z,4.40
2022-12-09T07:14:41.237Z,4.10
2022-12-09T07:17:18.410Z,4.73
2022-12-09T07:19:51.934Z,4.67
2022-12-09T07:22:25.452Z,3.93
2022-12-09T07:24:58.525Z,4.87
2022-12-09T07:27:31.666Z,4.37
2022-12-09T07:30:05.000Z,4.03
2022-12-09T07:32:38.536Z,5.33
2022-12-09T07:35:11.886Z,4.90
2022-12-09T07:37:45.763Z,4.43
2022-12-09T07:40:19.070Z,5.10
2022-12-09T07:42:57.628Z,4.77
2022-12-09T07:45:34.887Z,4.80
2022-12-09T07:48:09.492Z,4.23
2022-12-09T07:50:42.751Z,4.33
2022-12-09T07:53:15.955Z,4.13
2022-12-09T07:55:49.023Z,4.07
2022-12-09T07:58:22.168Z,4.13
2022-12-09T08:00:55.305Z,4.57
2022-12-09T08:03:28.383Z,4.90
2022-12-09T08:06:01.904Z,4.97
2022-12-09T08:08:35.839Z,4.67
2022-12-09T08:11:10.292Z,4.87
2022-12-09T08:13:43.780Z,5.27
2022-12-09T08:16:18.504Z,4.73
2022-12-09T08:18:52.588Z,4.63
2022-12-09T08:21:27.805Z,4.20
2022-12-09T08:24:03.475Z,5.07
2022-12-09T08:26:39.225Z,4.87
2022-12-09T08:29:14.319Z,5.70
2022-12-09T08:31:48.184Z,6.10
2022-12-09T08:34:21.446Z,4.67
2022-12-09T08:37:00.256Z,4.90
2022-12-09T08:39:34.998Z,4.87
2022-12-09T08:42:08.084Z,5.57
2022-12-09T08:44:41.035Z,5.00
2022-12-09T08:47:14.132Z,4.73
2022-12-09T08:49:47.487Z,4.93
2022-12-09T08:52:20.667Z,5.03
2022-12-09T08:54:53.642Z,4.47
2022-12-09T08:57:28.776Z,5.33
2022-12-09T09:00:01.948Z,4.07
2022-12-09T09:02:35.386Z,4.73
2022-12-09T09:05:09.423Z,4.83
2022-12-09T09:07:42.878Z,4.83
2022-12-09T09:10:16.298Z,4.57
2022-12-09T09:12:50.015Z,4.50
2022-12-09T09:15:23.904Z,5.77
2022-12-09T09:17:57.378Z,4.63
2022-12-09T09:20:30.877Z,4.67
2022-12-09T09:23:04.342Z,4.43
2022-12-09T09:25:40.952Z,4.53
2022-12-09T09:28:14.355Z,4.60
2022-12-09T09:30:50.394Z,4.93
2022-12-09T09:33:24.106Z,4.87
2022-12-09T09:35:57.805Z,4.10
2022-12-09T09:38:32.558Z,4.40
2022-12-09T09:41:17.395Z,4.67
2022-12-09T09:43:51.142Z,4.30
2022-12-09T09:46:39.976Z,5.23
2022-12-09T09:49:17.344Z,5.13
2022-12-09T09:51:50.604Z,5.37
2022-12-09T09:54:23.703Z,5.13
2022-12-09T09:57:06.353Z,4.90
2022-12-09T10:00:05.009Z,3.77
2022-12-09T10:02:45.895Z,6.13
2022-12-09T10:05:23.061Z,5.00
2022-12-09T10:08:07.357Z,4.77
2022-12-09T10:11:02.236Z,5.83
2022-12-09T10:13:41.962Z,4.13
2022-12-09T10:16:24.186Z,5.77
2022-12-09T10:19:11.473Z,5.10
2022-12-09T10:21:46.104Z,4.77
2022-12-09T10:24:32.973Z,5.07
2022-12-09T10:27:23.126Z,5.00
2022-12-09T10:29:59.175Z,4.97
2022-12-09T10:32:36.578Z,4.67
2022-12-09T10:35:20.795Z,4.83
2022-12-09T10:37:55.205Z,5.43
2022-12-09T10:40:31.670Z,5.37
2022-12-09T10:43:37.277Z,4.33
2022-12-09T10:46:21.029Z,7.63
2022-12-09T10:48:58.802Z,5.60
2022-12-09T10:51:34.948Z,5.20
2022-12-09T10:54:15.450Z,5.23
2022-12-09T10:57:09.817Z,5.10
2022-12-09T10:59:56.101Z,5.33
2022-12-09T11:02:30.255Z,5.23
2022-12-09T11:05:23.038Z,4.80
2022-12-09T11:07:57.498Z,4.40
2022-12-09T11:10:31.484Z,5.03
2022-12-09T11:13:07.181Z,5.37
2022-12-09T11:15:45.092Z,5.47
2022-12-09T11:18:20.473Z,4.77
2022-12-09T11:20:58.370Z,5.23
2022-12-09T11:23:32.598Z,4.63
2022-12-09T11:26:07.085Z,6.00
2022-12-09T11:28:41.318Z,5.30
2022-12-09T11:31:33.709Z,4.67
2022-12-09T11:34:16.363Z,4.67
2022-12-09T11:36:50.992Z,4.43
2022-12-09T11:39:26.981Z,4.50
2022-12-09T11:42:21.867Z,4.73
2022-12-09T11:44:59.766Z,4.87
2022-12-09T11:47:57.204Z,4.50
2022-12-09T11:50:32.616Z,4.73
2022-12-09T11:53:11.778Z,5.47
2022-12-09T11:55:50.020Z,3.87
2022-12-09T11:58:25.619Z,4.10
2022-12-09T12:01:07.661Z,4.10
2022-12-09T12:03:42.994Z,4.20
2022-12-09T12:06:21.125Z,4.33
2022-12-09T12:09:00.493Z,3.50
2022-12-09T12:11:37.402Z,3.50
2022-12-09T12:14:16.748Z,3.47
2022-12-09T12:16:53.076Z,3.73
2022-12-09T12:19:28.898Z,3.73
2022-12-09T12:22:20.452Z,3.83
2022-12-09T12:25:02.707Z,3.93
2022-12-09T12:27:38.615Z,3.90
2022-12-09T12:30:13.568Z,3.23
2022-12-09T12:33:53.108Z,4.10
2022-12-09T12:35:56.670Z,4.20
2022-12-09T12:38:32.781Z,4.50
2022-12-09T12:41:22.492Z,3.77
2022-12-09T12:44:33.306Z,3.57
2022-12-09T12:47:26.330Z,3.80
2022-12-09T12:50:18.055Z,3.07
2022-12-09T12:53:12.530Z,3.17
2022-12-09T12:55:51.633Z,2.60
2022-12-09T12:58:43.502Z,3.03
2022-12-09T13:01:36.605Z,2.80
2022-12-09T13:04:25.331Z,3.50
2022-12-09T13:07:06.168Z,2.70
2022-12-09T13:09:43.393Z,3.23
2022-12-09T13:12:18.739Z,2.90
2022-12-09T13:14:55.534Z,3.17
2022-12-09T13:17:29.859Z,3.23
2022-12-09T13:20:04.873Z,3.57
2022-12-09T13:22:50.746Z,3.40
2022-12-09T13:25:42.441Z,3.37
2022-12-09T13:28:25.628Z,3.23
2022-12-09T13:30:59.997Z,3.00
2022-12-09T13:33:36.087Z,3.40
2022-12-09T13:36:32.960Z,2.97
2022-12-09T13:39:13.223Z,2.57
2022-12-09T13:42:05.140Z,2.83
2022-12-09T13:44:38.604Z,2.37
2022-12-09T13:47:15.837Z,2.87
2022-12-09T13:50:02.476Z,2.60
2022-12-09T13:52:43.833Z,2.20
2022-12-09T13:55:22.811Z,2.67
2022-12-09T13:58:14.619Z,2.83
2022-12-09T14:01:04.297Z,2.43
2022-12-09T14:03:58.120Z,2.97
2022-12-09T14:06:33.203Z,2.20
2022-12-09T14:09:19.297Z,2.47
2022-12-09T14:11:53.369Z,2.73
2022-12-09T14:14:26.245Z,2.37
2022-12-09T14:17:00.407Z,2.33
2022-12-09T14:19:59.371Z,2.60
2022-12-09T14:22:33.059Z,2.40
2022-12-09T14:25:35.563Z,2.23
2022-12-09T14:28:11.510Z,2.23
2022-12-09T14:30:49.832Z,2.30
2022-12-09T14:33:22.792Z,2.07
2022-12-09T14:35:58.285Z,2.40
2022-12-09T14:39:08.291Z,2.10
2022-12-09T14:42:02.487Z,2.40
2022-12-09T14:44:44.469Z,2.63
2022-12-09T14:47:21.297Z,2.43
2022-12-09T14:49:55.716Z,1.77
2022-12-09T14:52:32.705Z,2.37
2022-12-09T14:55:08.723Z,2.27
2022-12-09T14:57:45.761Z,2.53
2022-12-09T15:00:26.462Z,2.47
2022-12-09T15:03:31.367Z,2.73
2022-12-09T15:05:56.138Z,2.53
2022-12-09T15:08:29.109Z,2.57
2022-12-09T15:11:05.139Z,3.37
2022-12-09T15:13:39.131Z,3.20
2022-12-09T15:16:13.627Z,2.77
2022-12-09T15:18:47.094Z,2.53
2022-12-09T15:21:30.054Z,2.60
2022-12-09T15:24:03.782Z,2.40
2022-12-09T15:26:36.695Z,3.17
2022-12-09T15:29:20.755Z,2.43
2022-12-09T15:31:53.709Z,3.53
2022-12-09T15:34:26.952Z,3.00
2022-12-09T15:37:01.055Z,3.27
2022-12-09T15:39:46.100Z,2.67
2022-12-09T15:42:22.863Z,2.73
2022-12-09T15:45:04.784Z,2.47
2022-12-09T15:47:40.729Z,2.43
2022-12-09T15:50:21.206Z,2.57
2022-12-09T15:53:13.977Z,2.87
2022-12-09T15:55:50.431Z,2.60
2022-12-09T15:58:25.408Z,2.80
2022-12-09T16:00:58.625Z,2.60
2022-12-09T16:03:35.244Z,2.87
2022-12-09T16:06:09.101Z,2.63
2022-12-09T16:08:45.438Z,2.90
2022-12-09T16:11:38.273Z,3.00
2022-12-09T16:14:11.499Z,2.60
2022-12-09T16:17:04.066Z,3.00
2022-12-09T16:19:38.114Z,2.93
2022-12-09T16:22:31.063Z,3.27
2022-12-09T16:25:15.654Z,3.23
2022-12-09T16:27:50.683Z,3.17
2022-12-09T16:30:24.796Z,3.20
2022-12-09T16:32:58.934Z,2.90
2022-12-09T16:35:40.856Z,2.90
2022-12-09T16:38:16.180Z,2.60
2022-12-09T16:40:52.402Z,2.90
2022-12-09T16:43:26.144Z,3.50
2022-12-09T16:46:00.260Z,3.00
2022-12-09T16:48:33.242Z,3.30
2022-12-09T16:51:13.975Z,2.97
2022-12-09T16:53:50.707Z,3.93
2022-12-09T16:56:25.311Z,3.30
2022-12-09T16:58:59.307Z,3.00
2022-12-09T17:01:34.766Z,3.60
2022-12-09T17:04:14.565Z,3.63
2022-12-09T17:06:47.557Z,3.70
2022-12-09T17:09:20.898Z,3.77
2022-12-09T17:11:53.942Z,3.80
2022-12-09T17:14:26.992Z,3.03
2022-12-09T17:17:02.841Z,3.70
2022-12-09T17:19:35.784Z,3.83
2022-12-09T17:22:08.846Z,5.60
2022-12-09T17:24:41.809Z,4.47
2022-12-09T17:27:14.845Z,4.37
2022-12-09T17:29:47.958Z,3.93
2022-12-09T17:32:21.084Z,4.20
2022-12-09T17:34:54.817Z,4.07
2022-12-09T17:37:27.819Z,4.27
2022-12-09T17:40:03.796Z,4.20
2022-12-09T17:42:37.209Z,4.70
2022-12-09T17:45:10.362Z,4.23
2022-12-09T17:47:43.624Z,4.03
2022-12-09T17:50:16.598Z,3.10
2022-12-09T17:52:49.530Z,4.73
2022-12-09T17:55:22.597Z,5.63
2022-12-09T17:57:55.503Z,5.00
2022-12-09T18:00:28.403Z,5.00
2022-12-09T18:03:01.398Z,4.47
2022-12-09T18:05:38.254Z,4.10
2022-12-09T18:08:11.213Z,6.13
2022-12-09T18:10:44.143Z,4.67
2022-12-09T18:13:17.346Z,4.33
2022-12-09T18:15:54.220Z,3.93
2022-12-09T18:18:28.954Z,3.60
2022-12-09T18:21:02.274Z,3.80
2022-12-09T18:23:35.912Z,4.10
2022-12-09T18:26:09.581Z,3.80
2022-12-09T18:28:42.502Z,4.27
2022-12-09T18:31:17.231Z,4.07
2022-12-09T18:33:50.387Z,4.40
2022-12-09T18:36:26.189Z,4.93
2022-12-09T18:38:59.686Z,4.73
2022-12-09T18:41:33.069Z,4.53
2022-12-09T18:44:07.152Z,3.33
2022-12-09T18:46:41.838Z,3.47
2022-12-09T18:49:16.990Z,4.30
2022-12-09T18:51:51.190Z,4.40
2022-12-09T18:54:26.415Z,4.70
2022-12-09T18:57:01.701Z,7.87
2022-12-09T18:59:34.726Z,8.37
2022-12-09T19:02:09.437Z,5.00
2022-12-09T19:04:42.530Z,3.87
2022-12-09T19:07:16.648Z,4.07
2022-12-09T19:09:49.635Z,3.80
2022-12-09T19:15:15.535Z,4.03
2022-12-09T19:17:48.503Z,4.20
2022-12-09T19:20:21.381Z,3.50
2022-12-09T19:22:55.039Z,3.73
2022-12-09T19:25:28.061Z,3.53
2022-12-09T19:28:00.990Z,4.60
2022-12-09T19:30:33.849Z,3.70
2022-12-09T19:33:06.776Z,3.87
2022-12-09T19:35:39.668Z,3.63
2022-12-09T19:38:12.856Z,4.20
2022-12-09T19:40:45.805Z,3.63
2022-12-09T19:43:18.717Z,3.83
2022-12-09T19:45:51.637Z,3.67
2022-12-09T19:48:24.534Z,3.87
2022-12-09T19:50:57.453Z,3.90
2022-12-09T19:53:31.135Z,3.47
2022-12-09T19:56:05.942Z,3.77
2022-12-09T19:58:39.891Z,3.60
2022-12-09T20:01:12.827Z,3.70
2022-12-09T20:03:46.831Z,3.80
2022-12-09T20:06:20.431Z,3.73
2022-12-09T20:08:53.441Z,3.40
2022-12-09T20:11:26.517Z,3.37
2022-12-09T20:13:59.731Z,4.00
2022-12-09T20:16:32.765Z,3.73
2022-12-09T20:19:06.205Z,4.00
2022-12-09T20:21:40.380Z,3.97
2022-12-09T20:24:13.355Z,3.80
2022-12-09T20:26:46.298Z,3.73
2022-12-09T20:29:19.234Z,4.00
2022-12-09T20:31:53.633Z,4.07
2022-12-09T20:34:26.579Z,4.80
2022-12-09T20:36:59.665Z,4.60
2022-12-09T20:39:32.603Z,4.30
2022-12-09T20:42:05.502Z,4.27
2022-12-09T20:44:38.439Z,3.90
2022-12-09T20:47:11.368Z,3.63
2022-12-09T20:49:44.324Z,4.20
2022-12-09T20:52:17.194Z,3.90
2022-12-09T20:54:50.104Z,4.30
2022-12-09T20:57:22.986Z,3.77
2022-12-09T20:59:55.918Z,3.80
2022-12-09T21:02:28.832Z,3.87
2022-12-09T21:05:01.812Z,4.53
2022-12-09T21:07:34.953Z,3.47
2022-12-09T21:10:08.272Z,3.93
2022-12-09T21:12:41.439Z,4.37
2022-12-09T21:15:14.397Z,3.97
2022-12-09T21:17:50.669Z,4.47
2022-12-09T21:20:23.991Z,3.93
2022-12-09T21:23:25.121Z,4.43
2022-12-09T21:25:49.887Z,3.97
2022-12-09T21:28:22.799Z,4.00
2022-12-09T21:30:55.682Z,4.07
2022-12-09T21:33:28.652Z,3.80
2022-12-09T21:36:01.556Z,4.13
2022-12-09T21:38:35.020Z,4.77
2022-12-09T21:41:08.975Z,4.90
2022-12-09T21:43:42.668Z,6.70
2022-12-09T21:46:18.661Z,5.13
2022-12-09T21:48:52.806Z,5.40
2022-12-09T21:51:27.929Z,4.80
2022-12-09T21:54:01.054Z,4.03
2022-12-09T21:56:36.622Z,4.97
2022-12-09T21:59:10.593Z,5.07
2022-12-09T22:01:43.987Z,4.70
2022-12-09T22:04:17.458Z,4.70
2022-12-09T22:06:50.890Z,4.73
2022-12-09T22:09:24.624Z,4.10
2022-12-09T22:11:57.507Z,4.97
2022-12-09T22:14:30.631Z,5.20
2022-12-09T22:17:03.629Z,5.30
2022-12-09T22:19:36.657Z,5.20
2022-12-09T22:22:10.725Z,4.87
2022-12-09T22:24:43.651Z,5.00
2022-12-09T22:27:16.541Z,4.60
2022-12-09T22:29:49.718Z,5.00
2022-12-09T22:32:22.642Z,4.83
2022-12-09T22:34:55.556Z,4.57
2022-12-09T22:37:43.368Z,4.97
2022-12-09T22:40:18.170Z,4.97
2022-12-09T22:42:51.873Z,5.73
2022-12-09T22:45:24.784Z,4.77
2022-12-09T22:47:57.750Z,5.30
2022-12-09T22:50:30.680Z,5.17
2022-12-09T22:53:03.554Z,5.27
2022-12-09T22:55:36.496Z,4.27
2022-12-09T22:58:09.366Z,4.80
2022-12-09T23:00:42.582Z,5.47
2022-12-09T23:03:15.555Z,4.83
2022-12-09T23:05:48.576Z,4.93
2022-12-09T23:08:22.420Z,5.20
2022-12-09T23:10:55.407Z,5.47
2022-12-09T23:13:29.669Z,5.20
2022-12-09T23:16:03.517Z,4.50
2022-12-09T23:18:37.200Z,4.67
2022-12-09T23:21:11.470Z,5.03
2022-12-09T23:23:44.665Z,5.03
2022-12-09T23:26:18.917Z,5.33
2022-12-09T23:28:52.807Z,4.90
2022-12-09T23:31:27.687Z,5.50
2022-12-09T23:34:01.275Z,5.30
2022-12-09T23:36:35.488Z,5.30
2022-12-09T23:39:10.862Z,4.77
2022-12-09T23:41:44.705Z,5.27
2022-12-09T23:44:19.264Z,5.30
2022-12-09T23:46:52.183Z,4.33
2022-12-09T23:49:25.300Z,5.50
2022-12-09T23:51:58.208Z,4.50
2022-12-09T23:54:32.265Z,4.70
2022-12-09T23:57:05.234Z,6.05
2022-12-09T23:59:38.203Z,6.47
